Brunswick Executive Airport (KBXM)
Brunswick, ME
Field Elevation: 72
Lat: 43°53.54N  Long: 69°56.33W
CTAF/Unicom Freq: 122.7250
   
    
Weather Advisories
2018-02-24   19:24 Z
Altimeter 30.10" Hg
Wind 010° @ 13 KT
Gusts 17 KT
Visibility 10 SM
Ceiling FEW210
Temperature 8° C (46° F)
Dewpoint -3° C (27° F)
Relative Humidity 47%
Density Altitude --
Condensation Altitude 5,600 feet
Wind Chill: 4° C (39° F)
Wind and Runways
Indicated Runway = 01
Headwind = 13 kt
Crosswind = 0 kt
History
 
 
 
More Info
All DigiWx sites map
 
NOAA Forecast
 
Airport IQ 5010
(OCNJ) Ocean City, NJ
(39N) Princeton, NJ
 
about DigiWx
 
FAA Disclaimer: The data displayed is for advisory purposes only and is not to be used for flight planning or operations. For official data, please call (not available) to hear the current automated AWOS voice message.
  METAR KBXM 241924Z AUTO 01013G17KT 10 SM FEW210 08/M03 A3010